aviador You're here:

KIJD Decoded Metar

WILLIMANTIC in CT, USA
Report Time2018-06-18 18:52:00
UTC Time2018-06-18 19:10:25
Flight Rules vfr VFR
Wind210° at 14 Gusting to 18 kt
W.Decomp.*RWY 18: 9.9 kt HW 9.9 kt RCW
RWY 27: 9.9 kt HW 9.9 kt LCW
W.Rank210° ranks 7
Current wind is above 210° avg. (7.1)
Visibility9999 m
Phenomena:N/A
Clouds:Few 038 Hf
Expected CloudBase > 4,000 ft AGL from Temp-Dew spread
CeilingNone
Temp31°C (ISA +16)
Dew Point21°C (55% RH)
Heat Index33.7°C
AAT30.1°C
QNH1011 hPa
Density Alt2,526 ft
Elevation246 ft
Report Wrong Elevation
Raw Report
KIJD 181852Z AUTO 21014G18KT 10SM FEW038 31/21 A2986 RMK AO2
SLP110 T03110211=

Extra information for KIJD:More info

Metar Taf Metar & Taf Last 4 Metars F.Rules Stats Wind Profile Meteogram Temp Stats Airport Information Weather charts Add Link Nearby VenuesMetar ALERT Operation Metar Decoded Social comments

AIRNAV info for KIJD